Latest Weather Observations for Mount Magnet Airport

IDW60801

Issued at 12:35 pm WST Thursday 23 October 2014 (issued every 30 minutes, with the page automatically refreshed every 10 minutes)

About weather observations | Map of weather stations | Latest weather observations for WA | Other Formats
Station Details ID: 007600 Name: MOUNT MAGNET AERO Lat: -28.12 Lon: 117.84 Height: 407.0 m
Data from the previous 72 hours. | See also: Recent months at Mount Magnet Airport
Date/Time
WST
Temp
°C
App
Temp
°C
Dew
Point
Rel
Hum
%
Delta-T
°C
Wind Press
QNH
hPa
Press
MSL
hPa
Rain
since 9 am
mm
Dir
 
Spd
km/h
Gust
km/h
Spd
kts
Gust
kts
23/12:30pm 25.6 21.3 7.2 31 9.9 WSW 19 26 10 14 1016.2 1014.5 0.0
23/12:00pm 24.4 20.8 6.6 32 9.4 WSW 15 28 8 15 1016.6 1014.8 0.0
23/11:30am 23.8 20.2 6.6 33 9.0 SW 15 20 8 11 1017.0 1015.2 0.0
23/11:00am 22.8 20.5 7.4 37 8.2 SSW 9 15 5 8 1017.2 1015.4 0.0
23/10:30am 22.1 18.7 7.5 39 7.7 WNW 15 20 8 11 1017.7 1016.0 0.0
23/10:00am 21.2 19.2 8.8 45 6.7 SW 9 13 5 7 1018.0 1016.3 0.0
23/09:30am 20.5 19.1 8.8 47 6.3 SSW 6 13 3 7 1018.1 1016.4 0.0
23/09:00am 19.5 17.6 9.1 51 5.6 WSW 9 17 5 9 1018.0 1016.3 0.0
23/08:30am 18.8 17.0 9.6 55 5.0 SW 9 17 5 9 1018.0 1016.3 0.0
23/08:00am 18.6 16.2 9.9 57 4.7 SW 13 20 7 11 1017.9 1016.2 0.0
23/07:30am 18.1 14.5 9.7 58 4.5 SW 19 24 10 13 1017.8 1016.1 0.0
23/07:00am 17.4 14.9 11.2 67 3.4 WSW 15 20 8 11 1017.8 1016.1 0.0
23/06:30am 17.2 15.3 11.7 70 3.1 WSW 13 20 7 11 1017.8 1016.1 0.0
23/06:00am 16.5 14.6 11.9 74 2.6 WSW 13 15 7 8 1017.7 1016.0 0.0
23/05:30am 16.4 14.5 11.8 74 2.6 WSW 13 17 7 9 1017.4 1015.7 0.0
23/05:00am 16.8 14.5 11.7 72 2.8 WSW 15 19 8 10 1017.2 1015.4 0.0
23/04:30am 17.0 14.7 11.7 71 2.9 SW 15 22 8 12 1017.0 1015.2 0.0
23/04:00am 17.3 14.6 11.6 69 3.2 SW 17 24 9 13 1017.0 1015.2 0.0
23/03:30am 17.3 14.9 11.3 68 3.3 WSW 15 20 8 11 1016.9 1015.1 0.0
23/03:00am 17.4 13.8 10.5 64 3.8 WSW 20 30 11 16 1016.8 1015.0 0.0
23/02:30am 17.9 14.2 10.0 60 4.3 WSW 20 26 11 14 1016.8 1015.0 0.0
23/02:00am 18.4 14.6 9.7 57 4.7 WSW 20 30 11 16 1016.8 1015.0 0.0
23/01:30am 18.9 15.6 9.4 54 5.1 WSW 17 22 9 12 1016.8 1015.0 0.0
23/01:00am 19.4 15.6 9.0 51 5.6 WSW 19 26 10 14 1016.9 1015.1 0.0
23/12:30am 20.0 15.9 7.7 45 6.5 WSW 19 24 10 13 1016.9 1015.1 0.0
23/12:00am 20.6 15.4 7.2 42 7.0 WSW 24 30 13 16 1016.8 1015.0 0.0
 
Date/Time
WST
Temp
°C
App
Temp
°C
Dew
Point
Rel
Hum
%
Delta-T
°C
Wind Press
QNH
hPa
Press
MSL
hPa
Rain
since 9 am
mm
Dir
 
Spd
km/h
Gust
km/h
Spd
kts
Gust
kts
22/11:30pm 21.4 15.6 6.1 37 7.9 WSW 26 33 14 18 1016.6 1014.8 0.0
22/11:00pm 22.3 16.9 6.5 36 8.2 WSW 24 33 13 18 1016.4 1014.7 0.0
22/10:30pm 23.1 18.5 8.0 38 8.1 WSW 22 30 12 16 1016.3 1014.6 0.0
22/10:00pm 23.9 19.1 8.7 38 8.3 WSW 24 33 13 18 1016.2 1014.5 0.0
22/09:30pm 24.7 20.8 8.6 36 8.8 WSW 19 24 10 13 1016.0 1014.3 0.0
22/09:00pm 26.0 21.4 3.9 24 11.2 WNW 17 26 9 14 1015.9 1014.2 0.0
22/08:30pm 26.5 22.3 3.7 23 11.6 WNW 15 20 8 11 1015.7 1014.0 0.0
22/08:00pm 27.3 22.7 3.7 22 12.0 WNW 17 22 9 12 1015.4 1013.7 0.0
22/07:30pm 28.0 22.1 3.7 21 12.4 WNW 24 32 13 17 1015.1 1013.3 0.0
22/07:00pm 28.5 22.3 4.1 21 12.6 WNW 26 35 14 19 1014.8 1013.0 0.0
22/06:30pm 29.2 22.4 5.3 22 12.7 WNW 30 44 16 24 1014.4 1012.6 0.0
22/06:00pm 29.9 23.8 6.5 23 12.7 NW 28 41 15 22 1014.3 1012.5 0.0
22/05:30pm 30.1 22.7 6.7 23 12.8 NW 35 48 19 26 1014.0 1012.2 0.0
22/05:00pm 31.0 22.5 6.8 22 13.3 NW 41 59 22 32 1013.7 1012.0 0.0
22/04:30pm 31.5 22.2 5.8 20 13.9 WNW 44 63 24 34 1013.5 1011.8 0.0
22/04:00pm 31.9 23.5 5.4 19 14.3 WNW 39 57 21 31 1013.4 1011.7 0.0
22/03:58pm 32.0 24.0 5.5 19 14.3 WNW 37 56 20 30 1013.4 1011.7 0.0
22/03:42pm 32.4 23.5 5.0 18 14.7 WNW 41 57 22 31 1013.2 1011.5 0.0
22/03:30pm 33.4 24.7 4.2 16 15.6 NNW 39 52 21 28 1013.3 1011.6 0.0
22/03:27pm 32.8 24.0 3.7 16 15.3 NNW 39 50 21 27 1013.2 1011.5 0.0
22/03:02pm 33.5 24.9 2.4 14 16.1 NW 37 56 20 30 1013.2 1011.5 0.0
22/03:00pm 33.9 24.9 2.7 14 16.3 NW 39 56 21 30 1013.2 1011.5 0.0
22/02:36pm 33.5 24.6 3.3 15 15.9 NW 39 57 21 31 1013.5 1011.8 0.0
22/02:30pm 32.5 22.7 2.5 15 15.5 NW 43 57 23 31 1013.6 1011.9 0.0
22/02:00pm 32.2 23.3 3.2 16 15.1 NW 39 63 21 34 1014.0 1012.2 0.0
22/01:53pm 33.4 24.0 4.2 16 15.6 NW 43 63 23 34 1014.0 1012.2 0.0
22/01:30pm 33.7 23.9 3.5 15 15.9 NW 44 57 24 31 1014.2 1012.4 0.0
22/01:14pm 33.7 24.5 3.5 15 15.9 WNW 41 54 22 29 1014.3 1012.5 0.0
22/01:07pm 33.5 23.3 3.3 15 15.9 NW 46 57 25 31 1014.3 1012.5 0.0
22/01:05pm 32.9 24.4 2.9 15 15.6 WNW 37 56 20 30 1014.4 1012.6 0.0
22/01:00pm 33.5 25.2 2.4 14 16.1 W 35 43 19 23 1014.3 1012.5 0.0
22/12:32pm 33.7 24.8 -2.1 10 17.3 NNW 35 54 19 29 1014.7 1012.9 0.0
22/12:30pm 33.2 24.9 0.0 12 16.5 NNW 33 46 18 25 1014.8 1013.0 0.0
22/12:00pm 32.5 24.4 3.5 16 15.2 NNW 35 56 19 30 1015.2 1013.5 0.0
22/11:30am 32.4 24.6 5.0 18 14.7 NW 35 54 19 29 1015.7 1014.0 0.0
22/11:19am 32.8 24.6 4.6 17 15.1 NW 37 50 20 27 1015.6 1013.9 0.0
22/11:00am 31.6 24.4 5.2 19 14.2 N 32 43 17 23 1015.5 1013.8 0.0
22/10:30am 32.0 25.1 4.7 18 14.6 N 30 44 16 24 1015.7 1014.0 0.0
22/10:00am 30.6 22.7 4.4 19 13.8 N 35 50 19 27 1016.0 1014.3 0.0
22/09:30am 30.2 22.0 4.8 20 13.4 NNE 37 52 20 28 1016.1 1014.4 0.0
22/09:04am 29.0 20.6 5.8 23 12.4 NNE 39 57 21 31 1016.2 1014.5 0.0
22/09:00am 28.5 20.2 6.0 24 12.0 NNE 39 52 21 28 1016.1 1014.4 0.0
22/08:30am 26.9 18.6 6.3 27 11.0 NNE 39 50 21 27 1016.1 1014.4 0.0
22/08:05am 26.0 18.6 6.6 29 10.3 NE 35 56 19 30 1016.1 1014.4 0.0
22/08:00am 25.8 18.7 6.4 29 10.3 NE 33 50 18 27 1016.1 1014.4 0.0
22/07:30am 24.9 18.0 6.6 31 9.7 NE 32 50 17 27 1016.3 1014.6 0.0
22/07:25am 24.6 18.2 6.8 32 9.4 NE 30 48 16 26 1016.4 1014.7 0.0
22/07:00am 23.5 18.9 6.7 34 8.8 NE 20 26 11 14 1016.6 1014.8 0.0
22/06:30am 22.2 18.1 6.0 35 8.3 NE 17 26 9 14 1016.6 1014.8 0.0
22/06:00am 20.0 16.8 5.3 38 7.4 NE 11 15 6 8 1016.4 1014.7 0.0
22/05:30am 18.8 15.6 4.9 40 6.9 NNE 11 13 6 7 1016.2 1014.5 0.0
22/05:00am 18.8 15.6 4.9 40 6.8 NNE 11 13 6 7 1015.7 1014.0 0.0
22/04:30am 19.4 16.5 4.7 38 7.2 NNE 9 15 5 8 1015.8 1014.1 0.0
22/04:00am 19.8 16.5 4.7 37 7.5 NNE 11 17 6 9 1015.6 1013.9 0.0
22/03:30am 20.8 17.2 4.8 35 8.0 NE 13 19 7 10 1015.6 1013.9 0.0
22/03:00am 20.7 17.4 4.7 35 8.0 NE 11 13 6 7 1015.5 1013.8 0.0
22/02:30am 21.1 18.1 4.2 33 8.4 NE 9 13 5 7 1015.7 1014.0 0.0
22/02:00am 21.2 18.2 4.3 33 8.4 NE 9 11 5 6 1015.9 1014.2 0.0
22/01:30am 22.0 18.6 4.1 31 8.9 ENE 11 13 6 7 1016.1 1014.4 0.0
22/01:00am 22.3 19.3 3.9 30 9.1 ENE 9 13 5 7 1016.1 1014.4 0.0
22/12:30am 21.9 18.9 4.0 31 8.9 E 9 13 5 7 1016.1 1014.4 0.0
22/12:00am 21.9 18.9 4.0 31 8.9 ESE 9 11 5 6 1016.7 1014.9 0.0
 
Date/Time
WST
Temp
°C
App
Temp
°C
Dew
Point
Rel
Hum
%
Delta-T
°C
Wind Press
QNH
hPa
Press
MSL
hPa
Rain
since 9 am
mm
Dir
 
Spd
km/h
Gust
km/h
Spd
kts
Gust
kts
21/11:30pm 23.1 19.7 4.1 29 9.5 ESE 11 13 6 7 1017.0 1015.2 0.0
21/11:00pm 24.0 20.3 4.4 28 9.9 ESE 13 15 7 8 1017.1 1015.3 0.0
21/10:30pm 24.4 20.9 3.7 26 10.4 ESE 11 15 6 8 1017.5 1015.8 0.0
21/10:00pm 24.7 20.9 3.9 26 10.5 ESE 13 19 7 10 1017.8 1016.1 0.0
21/09:30pm 24.8 20.9 3.5 25 10.7 ESE 13 15 7 8 1017.9 1016.2 0.0
21/09:00pm 24.6 21.1 3.3 25 10.6 E 11 13 6 7 1018.0 1016.3 0.0
21/08:30pm 25.9 22.7 3.2 23 11.4 SE 9 11 5 6 1018.4 1016.7 0.0
21/08:00pm 26.6 23.8 3.2 22 11.8 ESE 7 11 4 6 1018.2 1016.5 0.0
21/07:30pm 27.4 24.6 3.2 21 12.2 ESE 7 9 4 5 1018.0 1016.3 0.0
21/07:00pm 29.0 25.7 2.3 18 13.4 SE 9 11 5 6 1017.8 1016.1 0.0
21/06:30pm 29.7 26.7 2.1 17 13.9 ESE 7 11 4 6 1017.6 1015.9 0.0
21/06:00pm 30.4 27.0 1.8 16 14.4 ENE 9 13 5 7 1017.3 1015.6 0.0
21/05:30pm 30.6 27.6 1.9 16 14.5 NE 7 15 4 8 1017.1 1015.3 0.0
21/05:00pm 31.0 27.3 2.3 16 14.6 E 11 17 6 9 1017.0 1015.2 0.0
21/04:30pm 31.0 27.3 2.3 16 14.6 N 11 19 6 10 1017.0 1015.2 0.0
21/04:00pm 31.1 28.3 3.2 17 14.4 NE 7 11 4 6 1016.8 1015.0 0.0
21/03:30pm 31.1 27.2 3.2 17 14.4 ENE 13 20 7 11 1017.1 1015.3 0.0
21/03:00pm 30.1 26.9 3.2 18 13.8 SE 9 17 5 9 1017.4 1015.7 0.0
21/02:30pm 30.2 26.7 3.3 18 13.9 E 11 17 6 9 1017.6 1015.9 0.0
21/02:00pm 29.8 26.3 3.7 19 13.5 N 11 20 6 11 1018.3 1016.6 0.0
21/01:30pm 29.3 25.6 4.7 21 12.9 W 13 19 7 10 1018.8 1017.1 0.0
21/01:00pm 28.3 24.6 4.6 22 12.3 WNW 13 22 7 12 1019.4 1017.6 0.0
21/12:30pm 28.6 25.5 5.5 23 12.2 N 11 17 6 9 1019.7 1018.0 0.0
21/12:00pm 28.0 25.0 6.2 25 11.6 NE 11 19 6 10 1020.1 1018.4 0.0
21/11:30am 26.7 23.7 6.2 27 10.9 NNW 11 17 6 9 1020.6 1018.9 0.0
21/11:00am 25.8 22.4 5.9 28 10.4 NE 13 24 7 13 1021.1 1019.4 0.0
21/10:30am 25.3 22.6 7.4 32 9.6 E 11 22 6 12 1021.4 1019.7 0.0
21/10:00am 24.4 20.5 7.1 33 9.2 NE 17 22 9 12 1021.7 1020.0 0.0
21/09:30am 23.1 18.9 7.6 37 8.3 E 19 28 10 15 1021.8 1020.1 0.0
21/09:00am 22.5 18.9 8.2 40 7.7 E 17 24 9 13 1021.9 1020.2 0.0
21/08:30am 21.0 16.4 8.3 44 6.8 E 22 30 12 16 1022.0 1020.3 0.0
21/08:00am 20.2 15.3 8.5 47 6.2 E 24 32 13 17 1022.0 1020.3 0.0
21/07:30am 18.9 15.0 8.8 52 5.4 E 19 26 10 14 1022.0 1020.3 0.0
21/07:00am 16.6 13.4 8.3 58 4.3 ESE 15 20 8 11 1021.7 1020.0 0.0
21/06:30am 14.9 13.0 7.7 62 3.7 SSE 7 9 4 5 1021.2 1019.5 0.0
21/06:00am 13.5 11.5 7.1 65 3.2 SSW 7 9 4 5 1020.9 1019.2 0.0
21/05:30am 12.7 9.8 6.5 66 3.0 SSW 11 13 6 7 1020.6 1018.9 0.0
21/05:00am 13.0 10.5 6.4 64 3.2 SSW 9 11 5 6 1020.2 1018.5 0.0
21/04:30am 13.4 10.8 6.3 62 3.5 SSW 9 9 5 5 1020.0 1018.3 0.0
21/04:00am 13.6 11.4 6.0 60 3.7 SSW 7 7 4 4 1019.7 1018.0 0.0
21/03:30am 14.2 12.1 5.8 57 4.1 SSW 6 7 3 4 1019.5 1017.8 0.0
21/03:00am 14.6 11.9 5.7 55 4.3 SSW 9 11 5 6 1019.1 1017.3 0.0
21/02:30am 15.1 11.9 5.3 52 4.7 SSW 11 13 6 7 1019.1 1017.3 0.0
21/02:00am 15.9 13.2 5.5 50 5.1 S 9 11 5 6 1019.1 1017.3 0.0
21/01:30am 16.6 13.9 5.6 48 5.4 S 9 11 5 6 1019.1 1017.3 0.0
21/01:00am 16.9 14.6 5.5 47 5.6 S 7 9 4 5 1019.1 1017.3 0.0
21/12:30am 17.2 14.9 5.5 46 5.8 SSW 7 9 4 5 1019.2 1017.4 0.0
21/12:00am 18.0 15.2 5.2 43 6.3 S 9 13 5 7 1019.3 1017.5 0.0
 
Date/Time
WST
Temp
°C
App
Temp
°C
Dew
Point
Rel
Hum
%
Delta-T
°C
Wind Press
QNH
hPa
Press
MSL
hPa
Rain
since 9 am
mm
Dir
 
Spd
km/h
Gust
km/h
Spd
kts
Gust
kts
20/11:30pm 18.4 15.2 5.3 42 6.5 S 11 15 6 8 1019.4 1017.6 0.0
20/11:00pm 18.7 16.4 5.5 42 6.6 SSW 7 9 4 5 1019.5 1017.8 0.0
20/10:30pm 19.6 16.5 5.6 40 7.0 S 11 13 6 7 1019.7 1018.0 0.0
20/10:00pm 20.2 17.2 5.8 39 7.3 S 11 13 6 7 1019.6 1017.9 0.0
20/09:30pm 20.7 18.0 5.5 37 7.7 S 9 11 5 6 1019.7 1018.0 0.0
20/09:00pm 21.5 18.5 5.8 36 8.0 S 11 15 6 8 1019.6 1017.9 0.0
20/08:30pm 22.1 19.8 5.9 35 8.3 SSW 7 9 4 5 1019.6 1017.9 0.0
20/08:00pm 22.9 20.1 5.3 32 9.0 S 9 11 5 6 1019.3 1017.5 0.0
20/07:30pm 23.8 20.1 4.7 29 9.7 SSW 13 17 7 9 1018.8 1017.1 0.0
20/07:00pm 24.1 21.2 4.5 28 9.9 SW 9 13 5 7 1018.4 1016.7 0.0
20/06:30pm 24.7 20.3 4.5 27 10.3 WSW 17 20 9 11 1017.8 1016.1 0.0
20/06:00pm 25.1 20.5 3.7 25 10.7 WSW 17 20 9 11 1017.5 1015.8 0.0
20/05:30pm 25.4 20.7 3.4 24 11.0 WSW 17 24 9 13 1017.3 1015.6 0.0
20/05:00pm 25.8 21.1 3.1 23 11.3 SW 17 28 9 15 1017.0 1015.2 0.0
20/04:30pm 25.8 21.1 3.1 23 11.3 WSW 17 28 9 15 1016.8 1015.0 0.0
20/04:00pm 26.1 20.0 4.6 25 11.0 WSW 26 30 14 16 1016.7 1014.9 0.0
20/03:30pm 24.9 21.3 5.2 28 10.2 SSW 13 20 7 11 1016.7 1014.9 0.0
20/03:00pm 26.4 21.6 5.4 26 11.0 W 20 30 11 16 1016.7 1014.9 0.0
20/02:30pm 25.5 21.3 5.7 28 10.3 WSW 17 32 9 17 1016.6 1014.8 0.0
20/02:00pm 25.5 20.7 5.7 28 10.3 W 20 32 11 17 1016.9 1015.1 0.0
20/01:30pm 24.0 19.4 5.8 31 9.4 W 19 24 10 13 1017.2 1015.4 0.0
20/01:00pm 24.4 19.8 6.6 32 9.4 WSW 20 30 11 16 1017.6 1015.9 0.0

Other Formats:

Comma delimited format used in spreadsheet applications
http://www.bom.gov.au/fwo/IDW60801/IDW60801.94429.axf

JavaScript Object Notation format (JSON) in row-major order
http://www.bom.gov.au/fwo/IDW60801/IDW60801.94429.json